Gander, Canada
Current Conditions -  °F | °C
As of 3:19 AM on Monday 26 Jan 2015 (Local Time) from CYQX Reporting Station
Blowing Snow Blowing Snow  
Wind Chill: 18°   Ceiling: 1700
Heat Index: 30°   Visibility: 3mi
Dew Point: 28°   Wind: 18mph
Humidity: 93%   Direction: 220°SW
Pressure: 29.26"   Gusts: 25mph
Location:  48.96°N, 54.61°W
Report Text: CYQX 260619Z 22016G22KT 3SM -SHSN DRSN FEW002 SCT011 BKN017 OVC035 M01/M02 A2926 RMK SF2SC1SC4SC1 SLP915
Loading
Personal Weather Stations






























Interactive Weather Map New forecast layout! Learn more

10-Day Weather Forecast

Advertisements
Track Severe Weather on mobile